createdAt,value
2018-11-01T00:00:21.629Z,58.42
2018-11-01T00:02:54.438Z,58.39
2018-11-01T00:05:25.650Z,59.01
2018-11-01T00:07:58.477Z,60.00
2018-11-01T00:10:29.661Z,60.00
2018-11-01T00:13:02.498Z,60.37
2018-11-01T00:15:33.887Z,60.37
2018-11-01T00:18:06.822Z,61.25
2018-11-01T00:20:39.566Z,61.12
2018-11-01T00:23:10.891Z,60.91
2018-11-01T00:25:43.631Z,60.75
2018-11-01T00:28:16.466Z,60.91
2018-11-01T00:30:47.468Z,61.13
2018-11-01T00:33:18.619Z,61.23
2018-11-01T00:35:51.443Z,61.48
2018-11-01T00:38:22.637Z,61.48
2018-11-01T00:40:55.475Z,61.79
2018-11-01T00:43:26.893Z,61.79
2018-11-01T00:46:43.471Z,61.81
2018-11-01T00:49:15.114Z,61.59
2018-11-01T00:51:48.136Z,61.69
2018-11-01T00:54:21.115Z,61.89
2018-11-01T00:56:54.129Z,61.93
2018-11-01T00:59:27.092Z,61.88
2018-11-01T01:02:00.155Z,61.93
2018-11-01T01:04:33.130Z,61.78
2018-11-01T01:07:06.114Z,61.87
2018-11-01T01:09:39.103Z,61.71
2018-11-01T01:12:12.051Z,62.42
2018-11-01T01:14:45.129Z,62.40
2018-11-01T01:17:18.137Z,62.47
2018-11-01T01:19:51.130Z,62.51
2018-11-01T01:22:24.122Z,62.54
2018-11-01T01:24:57.138Z,62.58
2018-11-01T01:27:30.246Z,62.69
2018-11-01T01:30:03.154Z,63.33
2018-11-01T01:32:36.099Z,63.40
2018-11-01T01:35:10.470Z,63.28
2018-11-01T01:37:42.248Z,63.66
2018-11-01T01:40:15.103Z,63.66
2018-11-01T01:42:50.639Z,63.78
2018-11-01T01:45:24.133Z,63.53
2018-11-01T01:47:57.614Z,63.53
2018-11-01T01:50:30.489Z,64.41
2018-11-01T01:53:01.880Z,64.35
2018-11-01T01:55:34.605Z,63.92
2018-11-01T01:58:07.441Z,63.69
2018-11-01T02:00:38.889Z,63.36
2018-11-01T02:03:11.602Z,63.29
2018-11-01T02:05:44.552Z,63.28
2018-11-01T02:08:15.887Z,63.28
2018-11-01T02:10:48.461Z,63.62
2018-11-01T02:13:21.390Z,63.59
2018-11-01T02:15:52.620Z,63.62
2018-11-01T02:18:25.532Z,63.24
2018-11-01T02:20:56.887Z,63.24
2018-11-01T02:23:29.783Z,63.51
2018-11-01T02:26:02.626Z,63.31
2018-11-01T02:28:35.640Z,63.30
2018-11-01T02:31:08.514Z,63.14
2018-11-01T02:33:39.890Z,63.14
2018-11-01T02:36:12.641Z,63.15
2018-11-01T02:38:45.439Z,63.56
2018-11-01T02:41:16.881Z,64.75
2018-11-01T02:43:49.653Z,65.20
2018-11-01T02:46:22.383Z,65.01
2018-11-01T02:48:55.398Z,64.86
2018-11-01T02:51:26.622Z,64.92
2018-11-01T02:53:59.382Z,65.05
2018-11-01T02:56:32.322Z,65.12
2018-11-01T02:59:05.102Z,64.96
2018-11-01T03:01:38.141Z,64.49
2018-11-01T03:04:11.123Z,64.57
2018-11-01T03:06:44.100Z,64.44
2018-11-01T03:09:17.151Z,64.26
2018-11-01T03:11:50.157Z,64.20
2018-11-01T03:14:23.109Z,65.11
2018-11-01T03:16:56.011Z,64.50
2018-11-01T03:19:28.792Z,64.02
2018-11-01T03:22:01.628Z,64.02
2018-11-01T03:24:34.487Z,64.35
2018-11-01T03:27:07.428Z,64.35
2018-11-01T03:29:38.889Z,64.69
2018-11-01T03:32:11.814Z,64.34
2018-11-01T03:34:44.604Z,64.77
2018-11-01T03:37:15.890Z,64.98
2018-11-01T03:39:48.481Z,65.06
2018-11-01T03:42:19.900Z,65.06
2018-11-01T03:44:52.451Z,64.97
2018-11-01T03:47:25.416Z,64.97
2018-11-01T03:49:58.102Z,65.66
2018-11-01T03:52:30.787Z,64.86
2018-11-01T03:55:03.439Z,64.69
2018-11-01T03:57:36.097Z,65.41
2018-11-01T04:00:13.122Z,66.12
2018-11-01T04:02:47.429Z,66.51
2018-11-01T04:05:20.346Z,64.98
2018-11-01T04:07:53.360Z,64.92
2018-11-01T04:10:26.104Z,65.11
2018-11-01T04:12:59.111Z,66.69
2018-11-01T04:15:32.132Z,65.76
2018-11-01T04:18:04.496Z,65.21
2018-11-01T04:20:35.885Z,65.29
2018-11-01T04:23:09.391Z,65.64
2018-11-01T04:25:42.174Z,65.55
2018-11-01T04:28:15.162Z,65.79
2018-11-01T04:30:47.771Z,66.14
2018-11-01T04:33:20.511Z,66.07
2018-11-01T04:35:53.350Z,65.87
2018-11-01T04:38:26.384Z,65.98
2018-11-01T04:40:59.135Z,66.55
2018-11-01T04:43:31.617Z,66.08
2018-11-01T04:46:02.898Z,65.99
2018-11-01T04:48:35.641Z,66.17
2018-11-01T04:51:08.469Z,66.17
2018-11-01T04:53:41.354Z,66.19
2018-11-01T04:56:14.150Z,66.43
2018-11-01T04:58:46.659Z,66.09
2018-11-01T05:01:22.440Z,66.13
2018-11-01T05:03:56.504Z,66.17
2018-11-01T05:06:29.152Z,66.11
2018-11-01T05:09:01.672Z,66.10
2018-11-01T05:11:34.413Z,66.42
2018-11-01T05:14:07.401Z,66.54
2018-11-01T05:16:40.120Z,66.55
2018-11-01T05:19:12.675Z,66.92
2018-11-01T05:21:45.349Z,67.14
2018-11-01T05:24:18.081Z,67.46
2018-11-01T05:26:51.132Z,68.18
2018-11-01T05:29:23.848Z,69.14
2018-11-01T05:31:55.249Z,69.10
2018-11-01T05:34:27.842Z,68.88
2018-11-01T05:36:59.124Z,68.66
2018-11-01T05:39:31.648Z,68.32
2018-11-01T05:42:04.620Z,67.78
2018-11-01T05:44:37.352Z,67.78
2018-11-01T05:47:10.135Z,67.66
2018-11-01T05:49:42.617Z,67.28
2018-11-01T05:52:15.442Z,67.00
2018-11-01T05:54:48.110Z,66.64
2018-11-01T05:57:21.140Z,66.62
2018-11-01T05:59:54.241Z,66.34
2018-11-01T06:02:43.611Z,66.11
2018-11-01T06:05:16.350Z,65.91
2018-11-01T06:07:54.463Z,65.58
2018-11-01T06:10:27.375Z,65.31
2018-11-01T06:13:00.145Z,65.02
2018-11-01T06:15:32.782Z,64.45
2018-11-01T06:18:05.440Z,64.22
2018-11-01T06:20:38.148Z,63.70
2018-11-01T06:24:35.438Z,62.29
2018-11-01T06:27:08.134Z,62.21
2018-11-01T06:29:40.624Z,62.08
2018-11-01T06:32:11.901Z,61.98
2018-11-01T06:34:47.986Z,61.99
2018-11-01T06:37:20.669Z,62.74
2018-11-01T06:39:53.364Z,62.74
2018-11-01T06:42:26.039Z,62.63
2018-11-01T06:44:58.650Z,62.30
2018-11-01T06:47:31.409Z,62.30
2018-11-01T06:50:04.358Z,62.62
2018-11-01T06:52:37.410Z,63.56
2018-11-01T06:55:12.510Z,63.56
2018-11-01T06:57:43.897Z,63.24
2018-11-01T07:00:16.284Z,62.67
2018-11-01T07:02:48.768Z,62.09
2018-11-01T07:05:20.103Z,61.60
2018-11-01T07:07:52.657Z,61.36
2018-11-01T07:10:25.401Z,61.11
2018-11-01T07:12:58.373Z,60.44
2018-11-01T07:15:31.156Z,60.23
2018-11-01T07:18:04.149Z,58.58
2018-11-01T07:20:36.786Z,58.16
2018-11-01T07:23:09.906Z,57.84
2018-11-01T07:25:42.511Z,56.79
2018-11-01T07:28:13.678Z,55.08
2018-11-01T07:30:44.907Z,55.08
2018-11-01T07:33:17.652Z,53.83
2018-11-01T07:35:50.483Z,53.54
2018-11-01T07:38:21.895Z,53.23
2018-11-01T07:40:54.639Z,52.02
2018-11-01T07:43:27.403Z,52.02
2018-11-01T07:46:00.389Z,51.72
2018-11-01T07:48:31.738Z,51.03
2018-11-01T07:51:02.901Z,51.03
2018-11-01T07:53:35.508Z,49.30
2018-11-01T07:56:06.905Z,48.10
2018-11-01T07:58:42.364Z,44.64
2018-11-01T08:01:15.154Z,44.64
2018-11-01T08:03:47.680Z,41.67
2018-11-01T08:06:19.095Z,41.67
2018-11-01T08:08:52.112Z,39.83
2018-11-01T08:11:24.791Z,37.95
2018-11-01T08:13:57.517Z,33.99
2018-11-01T08:16:28.903Z,33.99
2018-11-01T08:19:01.650Z,34.79
2018-11-01T08:21:32.912Z,34.79
2018-11-01T08:24:04.281Z,35.11
2018-11-01T08:26:37.380Z,34.75
2018-11-01T08:29:10.257Z,34.92
2018-11-01T08:31:42.825Z,34.99
2018-11-01T08:34:15.622Z,35.14
2018-11-01T08:36:48.459Z,36.07
2018-11-01T08:39:21.450Z,36.92
2018-11-01T08:41:54.178Z,37.04
2018-11-01T08:44:27.186Z,35.94
2018-11-01T08:47:00.172Z,33.87
2018-11-01T08:49:33.215Z,33.51
2018-11-01T08:52:06.286Z,33.98
2018-11-01T08:54:39.152Z,34.69
2018-11-01T08:57:11.777Z,35.75
2018-11-01T08:59:44.735Z,36.67
2018-11-01T09:02:17.838Z,35.90
2018-11-01T09:04:50.416Z,35.90
2018-11-01T09:07:23.131Z,35.47
2018-11-01T09:09:56.144Z,35.63
2018-11-01T09:12:28.652Z,36.07
2018-11-01T09:15:01.439Z,36.77
2018-11-01T09:17:34.474Z,36.39
2018-11-01T09:20:07.795Z,35.77
2018-11-01T09:22:40.978Z,35.59
2018-11-01T09:25:14.140Z,35.65
2018-11-01T09:27:46.793Z,35.38
2018-11-01T09:30:19.464Z,35.64
2018-11-01T09:32:52.479Z,35.64
2018-11-01T09:35:25.407Z,36.45
2018-11-01T09:37:58.374Z,36.41
2018-11-01T09:40:29.514Z,37.13
2018-11-01T09:43:00.905Z,37.36
2018-11-01T09:45:33.835Z,38.38
2018-11-01T09:48:06.980Z,38.85
2018-11-01T09:50:39.638Z,39.56
2018-11-01T09:53:12.594Z,40.69
2018-11-01T09:55:43.955Z,40.69
2018-11-01T09:58:16.692Z,41.15
2018-11-01T10:00:49.574Z,42.43
2018-11-01T10:03:20.904Z,42.43
2018-11-01T10:05:53.679Z,43.00
2018-11-01T10:08:26.816Z,43.00
2018-11-01T10:10:59.656Z,43.57
2018-11-01T10:13:32.446Z,44.01
2018-11-01T10:16:03.960Z,44.01
2018-11-01T10:18:37.266Z,44.25
2018-11-01T10:21:10.483Z,44.56
2018-11-01T10:23:41.669Z,44.75
2018-11-01T10:26:14.529Z,45.16
2018-11-01T10:28:45.897Z,45.16
2018-11-01T10:31:18.629Z,45.48
2018-11-01T10:33:51.555Z,45.76
2018-11-01T10:36:22.908Z,46.10
2018-11-01T10:38:55.762Z,46.34
2018-11-01T10:41:28.619Z,46.75
2018-11-01T10:44:01.506Z,46.90
2018-11-01T10:46:34.424Z,46.96
2018-11-01T10:49:05.887Z,46.97
2018-11-01T10:51:38.791Z,46.98
2018-11-01T10:54:11.533Z,46.08
2018-11-01T10:56:42.759Z,46.08
2018-11-01T10:59:15.470Z,45.83
2018-11-01T11:02:05.484Z,45.83
2018-11-01T11:04:38.447Z,45.38
2018-11-01T11:07:11.457Z,45.61
2018-11-01T11:09:42.631Z,45.30
2018-11-01T11:12:15.492Z,44.63
2018-11-01T11:14:48.427Z,44.63
2018-11-01T11:17:21.416Z,44.11
2018-11-01T11:19:52.926Z,44.11
2018-11-01T11:22:25.817Z,44.54
2018-11-01T11:24:58.634Z,44.09
2018-11-01T11:27:31.474Z,44.67
2018-11-01T11:30:04.313Z,44.76
2018-11-01T11:32:37.121Z,45.17
2018-11-01T11:35:10.738Z,45.46
2018-11-01T11:37:43.645Z,46.08
2018-11-01T11:40:16.667Z,46.34
2018-11-01T11:42:49.650Z,46.69
2018-11-01T11:45:22.672Z,46.94
2018-11-01T11:47:55.637Z,47.00
2018-11-01T11:50:28.497Z,47.03
2018-11-01T11:52:59.907Z,47.03
2018-11-01T11:55:32.664Z,47.06
2018-11-01T11:58:05.467Z,47.15
2018-11-01T12:00:36.623Z,47.33
2018-11-01T12:03:09.535Z,47.33
2018-11-01T12:05:42.459Z,47.45
2018-11-01T12:08:18.260Z,46.95
2018-11-01T12:10:51.396Z,46.89
2018-11-01T12:13:22.898Z,46.98
2018-11-01T12:15:55.657Z,46.98
2018-11-01T12:18:28.672Z,46.77
2018-11-01T12:21:02.637Z,46.79
2018-11-01T12:23:35.442Z,46.79
2018-11-01T12:26:07.260Z,46.89
2018-11-01T12:28:40.209Z,47.22
2018-11-01T12:31:13.158Z,47.49
2018-11-01T12:33:46.138Z,47.66
2018-11-01T12:36:19.243Z,47.48
2018-11-01T12:38:52.117Z,47.23
2018-11-01T12:41:25.154Z,47.29
2018-11-01T12:43:58.165Z,47.32
2018-11-01T12:46:31.169Z,47.26
2018-11-01T12:49:04.154Z,47.26
2018-11-01T12:51:37.112Z,46.78
2018-11-01T12:54:10.154Z,46.68
2018-11-01T12:56:43.130Z,46.71
2018-11-01T12:59:16.185Z,46.64
2018-11-01T13:01:49.137Z,46.71
2018-11-01T13:04:22.120Z,46.76
2018-11-01T13:06:55.102Z,46.38
2018-11-01T13:09:28.254Z,46.38
2018-11-01T13:12:01.120Z,46.31
2018-11-01T13:14:34.061Z,46.24
2018-11-01T13:17:07.661Z,46.79
2018-11-01T13:19:40.644Z,47.11
2018-11-01T13:22:13.637Z,46.96
2018-11-01T13:24:46.623Z,47.06
2018-11-01T13:27:19.802Z,46.46
2018-11-01T13:29:52.619Z,46.46
2018-11-01T13:32:25.647Z,47.08
2018-11-01T13:34:58.704Z,46.96
2018-11-01T13:37:31.755Z,47.34
2018-11-01T13:40:04.786Z,47.34
2018-11-01T13:42:37.679Z,48.29
2018-11-01T13:45:10.976Z,48.75
2018-11-01T13:47:44.334Z,48.75
2018-11-01T13:50:17.495Z,49.06
2018-11-01T13:52:48.902Z,49.32
2018-11-01T13:55:21.682Z,49.65
2018-11-01T13:57:54.479Z,50.32
2018-11-01T14:00:27.435Z,50.32
2018-11-01T14:03:00.394Z,50.54
2018-11-01T14:05:31.946Z,50.67
2018-11-01T14:08:04.914Z,50.55
2018-11-01T14:10:37.908Z,50.14
2018-11-01T14:13:11.072Z,49.83
2018-11-01T14:15:44.254Z,49.78
2018-11-01T14:18:17.357Z,49.63
2018-11-01T14:20:48.890Z,49.26
2018-11-01T14:23:21.668Z,49.26
2018-11-01T14:25:57.247Z,49.26
2018-11-01T14:28:30.447Z,49.26
2018-11-01T14:31:02.075Z,49.27
2018-11-01T14:33:35.106Z,49.38
2018-11-01T14:36:08.430Z,49.47
2018-11-01T14:38:39.915Z,49.47
2018-11-01T14:41:12.618Z,49.67
2018-11-01T14:45:04.834Z,49.66
2018-11-01T14:47:37.715Z,49.69
2018-11-01T14:50:11.800Z,49.86
2018-11-01T14:55:16.951Z,49.87
2018-11-01T14:57:50.076Z,49.92
2018-11-01T15:00:19.890Z,49.92
2018-11-01T15:02:52.800Z,49.87
2018-11-01T15:05:25.627Z,49.98
2018-11-01T15:07:58.660Z,49.85
2018-11-01T15:10:31.603Z,49.97
2018-11-01T15:13:04.649Z,50.13
2018-11-01T15:15:37.541Z,50.09
2018-11-01T15:18:10.397Z,50.09
2018-11-01T15:20:41.931Z,50.04
2018-11-01T15:23:14.809Z,50.07
2018-11-01T15:25:47.647Z,50.10
2018-11-01T15:28:20.509Z,50.17
2018-11-01T15:30:53.403Z,50.17
2018-11-01T15:33:24.919Z,50.12
2018-11-01T15:35:57.897Z,50.20
2018-11-01T15:38:31.146Z,50.22
2018-11-01T15:41:11.608Z,50.24
2018-11-01T15:43:44.483Z,50.68
2018-11-01T15:46:17.373Z,50.68
2018-11-01T15:48:48.677Z,50.66
2018-11-01T15:51:25.606Z,50.65
2018-11-01T15:54:01.333Z,50.65
2018-11-01T15:56:32.549Z,50.66
2018-11-01T15:59:05.402Z,50.94
2018-11-01T16:01:36.881Z,51.19
2018-11-01T16:04:09.818Z,51.29
2018-11-01T16:06:42.658Z,51.40
2018-11-01T16:09:15.627Z,51.31
2018-11-01T16:11:48.465Z,51.06
2018-11-01T16:14:19.704Z,51.06
2018-11-01T16:19:22.537Z,51.09
2018-11-01T16:21:55.464Z,51.25
2018-11-01T16:24:29.251Z,51.17
2018-11-01T16:27:04.042Z,51.14
2018-11-01T16:29:37.557Z,51.17
2018-11-01T16:32:10.649Z,51.07
2018-11-01T16:34:43.919Z,50.82
2018-11-01T16:37:17.515Z,50.82
2018-11-01T16:39:50.475Z,50.93
2018-11-01T16:42:22.414Z,50.82
2018-11-01T16:44:55.268Z,50.82
2018-11-01T16:47:28.254Z,50.83
2018-11-01T16:50:01.494Z,50.98
2018-11-01T16:52:34.479Z,51.20
2018-11-01T16:55:07.594Z,51.24
2018-11-01T16:57:41.251Z,51.38
2018-11-01T17:00:15.573Z,51.54
2018-11-01T17:02:47.279Z,51.52
2018-11-01T17:05:20.457Z,51.48
2018-11-01T17:07:53.478Z,51.98
2018-11-01T17:10:24.671Z,51.79
2018-11-01T17:12:57.671Z,51.57
2018-11-01T17:15:28.889Z,51.32
2018-11-01T17:18:01.685Z,51.24
2018-11-01T17:20:34.501Z,51.43
2018-11-01T17:23:06.118Z,51.58
2018-11-01T17:25:38.916Z,51.18
2018-11-01T17:28:11.634Z,51.27
2018-11-01T17:30:43.465Z,51.40
2018-11-01T17:33:16.499Z,51.40
2018-11-01T17:35:47.887Z,51.09
2018-11-01T17:38:21.698Z,51.24
2018-11-01T17:40:53.252Z,51.44
2018-11-01T17:43:26.433Z,51.44
2018-11-01T17:45:59.544Z,51.59
2018-11-01T17:48:31.154Z,51.69
2018-11-01T17:51:04.416Z,51.51
2018-11-01T17:53:37.154Z,51.75
2018-11-01T17:56:09.967Z,52.01
2018-11-01T17:58:42.964Z,51.87
2018-11-01T18:01:14.417Z,51.98
2018-11-01T18:03:47.477Z,51.98
2018-11-01T18:06:20.463Z,52.83
2018-11-01T18:08:53.491Z,54.07
2018-11-01T18:11:26.152Z,54.07
2018-11-01T18:13:58.758Z,54.63
2018-11-01T18:16:31.436Z,53.87
2018-11-01T18:19:04.370Z,53.87
2018-11-01T18:21:37.364Z,53.19
2018-11-01T18:24:10.154Z,52.65
2018-11-01T18:26:43.109Z,52.63
2018-11-01T18:29:16.102Z,52.87
2018-11-01T18:31:49.165Z,52.87
2018-11-01T18:34:22.101Z,53.00
2018-11-01T18:36:54.824Z,52.94
2018-11-01T18:39:27.593Z,52.79
2018-11-01T18:42:00.364Z,52.88
2018-11-01T18:44:33.178Z,53.27
2018-11-01T18:47:06.121Z,53.59
2018-11-01T18:49:39.347Z,53.86
2018-11-01T18:52:12.166Z,54.17
2018-11-01T18:54:45.149Z,54.40
2018-11-01T18:57:17.551Z,54.67
2018-11-01T18:59:50.376Z,55.09
2018-11-01T19:02:23.102Z,54.88
2018-11-01T19:04:55.623Z,54.75
2018-11-01T19:07:28.425Z,54.49
2018-11-01T19:10:01.115Z,54.12
2018-11-01T19:12:33.988Z,53.70
2018-11-01T19:15:08.534Z,53.51
2018-11-01T19:17:42.155Z,53.12
2018-11-01T19:20:15.141Z,53.12
2018-11-01T19:22:47.785Z,52.89
2018-11-01T19:25:19.074Z,52.62
2018-11-01T19:27:51.848Z,52.62
2018-11-01T19:30:24.910Z,52.64
2018-11-01T19:32:57.501Z,52.81
2018-11-01T19:35:30.387Z,52.92
2018-11-01T19:38:03.411Z,52.92
2018-11-01T19:40:36.545Z,52.43
2018-11-01T19:43:09.372Z,52.43
2018-11-01T19:45:42.427Z,52.53
2018-11-01T19:48:13.978Z,52.75
2018-11-01T19:50:46.809Z,52.87
2018-11-01T19:53:19.656Z,52.85
2018-11-01T19:55:52.613Z,52.97
2018-11-01T19:58:25.528Z,52.97
2018-11-01T20:00:56.900Z,52.76
2018-11-01T20:03:33.557Z,52.83
2018-11-01T20:06:05.024Z,52.85
2018-11-01T20:08:37.864Z,52.61
2018-11-01T20:11:11.261Z,52.59
2018-11-01T20:13:44.107Z,52.50
2018-11-01T20:16:17.129Z,52.44
2018-11-01T20:18:50.311Z,52.31
2018-11-01T20:21:23.206Z,52.42
2018-11-01T20:23:56.815Z,52.46
2018-11-01T20:26:29.973Z,52.22
2018-11-01T20:29:02.736Z,52.38
2018-11-01T20:31:35.774Z,52.24
2018-11-01T20:34:08.726Z,52.24
2018-11-01T20:36:41.928Z,52.59
2018-11-01T20:39:15.710Z,52.58
2018-11-01T20:41:48.672Z,52.58
2018-11-01T20:44:20.373Z,52.50
2018-11-01T20:46:53.682Z,52.32
2018-11-01T20:49:26.749Z,52.50
2018-11-01T20:52:00.356Z,52.47
2018-11-01T20:57:03.297Z,52.64
2018-11-01T20:59:36.574Z,52.61
2018-11-01T21:02:09.981Z,52.57
2018-11-01T21:04:43.334Z,52.63
2018-11-01T21:07:16.561Z,52.64
2018-11-01T21:09:49.718Z,52.70
2018-11-01T21:12:22.796Z,52.86
2018-11-01T21:14:55.985Z,52.86
2018-11-01T21:17:29.312Z,53.12
2018-11-01T21:20:02.475Z,53.10
2018-11-01T21:22:34.072Z,53.21
2018-11-01T21:25:07.592Z,53.18
2018-11-01T21:27:40.977Z,53.22
2018-11-01T21:30:14.255Z,53.35
2018-11-01T21:32:47.521Z,53.35
2018-11-01T21:35:20.565Z,53.59
2018-11-01T21:37:53.261Z,53.81
2018-11-01T21:40:26.129Z,53.81
2018-11-01T21:42:59.496Z,53.83
2018-11-01T21:45:30.895Z,53.75
2018-11-01T21:48:03.658Z,53.75
2018-11-01T21:50:36.492Z,53.79
2018-11-01T21:53:09.575Z,53.79
2018-11-01T21:55:40.900Z,53.77
2018-11-01T21:58:13.800Z,53.75
2018-11-01T22:00:46.497Z,53.76
2018-11-01T22:03:19.402Z,53.85
2018-11-01T22:05:50.896Z,53.75
2018-11-01T22:08:23.911Z,53.96
2018-11-01T22:10:56.971Z,53.84
2018-11-01T22:13:30.151Z,53.70
2018-11-01T22:16:03.162Z,53.49
2018-11-01T22:18:36.505Z,53.48
2018-11-01T22:21:09.584Z,53.43
2018-11-01T22:23:42.542Z,53.38
2018-11-01T22:26:15.490Z,53.06
2018-11-01T22:28:47.000Z,52.85
2018-11-01T22:31:20.160Z,52.90
2018-11-01T22:33:53.259Z,52.73
2018-11-01T22:36:26.138Z,52.82
2018-11-01T22:38:59.260Z,52.87
2018-11-01T22:41:32.362Z,52.77
2018-11-01T22:44:05.463Z,52.74
2018-11-01T22:46:36.899Z,52.79
2018-11-01T22:49:10.270Z,52.94
2018-11-01T22:51:43.242Z,53.23
2018-11-01T22:54:16.074Z,53.21
2018-11-01T22:56:49.148Z,52.94
2018-11-01T22:59:22.125Z,52.90
2018-11-01T23:01:55.114Z,52.77
2018-11-01T23:04:28.128Z,52.77
2018-11-01T23:07:01.119Z,52.82
2018-11-01T23:09:34.108Z,52.71
2018-11-01T23:12:07.474Z,52.71
2018-11-01T23:14:38.656Z,52.59
2018-11-01T23:17:11.631Z,52.26
2018-11-01T23:19:44.531Z,52.26
2018-11-01T23:22:17.507Z,51.84
2018-11-01T23:24:50.408Z,51.60
2018-11-01T23:27:23.442Z,51.32
2018-11-01T23:29:54.896Z,51.57
2018-11-01T23:32:28.108Z,51.32
2018-11-01T23:35:01.054Z,50.93
2018-11-01T23:37:51.303Z,52.10
2018-11-01T23:40:41.635Z,51.77
2018-11-01T23:43:31.576Z,52.38
2018-11-01T23:46:20.256Z,52.38
2018-11-01T23:49:01.274Z,51.69
2018-11-01T23:51:34.391Z,51.69
2018-11-01T23:54:07.409Z,51.65
2018-11-01T23:56:38.701Z,51.55
2018-11-01T23:59:11.495Z,51.40
